createdAt,value
2023-02-03T00:00:10.479Z,4.30
2023-02-03T00:03:02.386Z,4.70
2023-02-03T00:05:31.300Z,4.40
2023-02-03T00:07:59.229Z,4.40
2023-02-03T00:10:27.551Z,4.30
2023-02-03T00:12:57.658Z,4.40
2023-02-03T00:15:26.802Z,4.20
2023-02-03T00:17:54.652Z,4.20
2023-02-03T00:20:22.855Z,4.20
2023-02-03T00:22:50.708Z,4.50
2023-02-03T00:25:18.926Z,4.20
2023-02-03T00:27:47.380Z,4.00
2023-02-03T00:30:15.392Z,4.00
2023-02-03T00:32:43.344Z,4.40
2023-02-03T00:35:12.820Z,4.30
2023-02-03T00:37:40.718Z,4.40
2023-02-03T00:40:09.487Z,4.40
2023-02-03T00:42:37.531Z,4.20
2023-02-03T00:45:06.680Z,4.00
2023-02-03T00:47:34.471Z,4.20
2023-02-03T00:50:02.399Z,4.70
2023-02-03T00:52:30.468Z,4.70
2023-02-03T00:54:58.363Z,4.20
2023-02-03T00:57:26.421Z,4.20
2023-02-03T00:59:54.892Z,4.40
2023-02-03T01:02:23.207Z,4.30
2023-02-03T01:04:53.569Z,4.20
2023-02-03T01:07:21.708Z,4.30
2023-02-03T01:09:50.089Z,4.00
2023-02-03T01:12:18.046Z,4.30
2023-02-03T01:14:46.049Z,4.40
2023-02-03T01:17:14.064Z,4.50
2023-02-03T01:19:41.966Z,4.80
2023-02-03T01:22:09.888Z,4.90
2023-02-03T01:24:37.833Z,4.70
2023-02-03T01:27:06.507Z,4.40
2023-02-03T01:29:34.432Z,4.70
2023-02-03T01:32:02.649Z,4.20
2023-02-03T01:34:30.914Z,4.20
2023-02-03T01:37:00.267Z,4.10
2023-02-03T01:39:29.690Z,4.30
2023-02-03T01:41:57.785Z,4.40
2023-02-03T01:44:46.121Z,4.30
2023-02-03T01:47:22.960Z,4.30
2023-02-03T01:50:00.751Z,4.10
2023-02-03T01:52:30.068Z,4.30
2023-02-03T01:55:00.658Z,4.10
2023-02-03T01:57:34.820Z,4.30
2023-02-03T02:00:06.968Z,4.20
2023-02-03T02:02:44.936Z,4.20
2023-02-03T02:05:16.233Z,4.20
2023-02-03T02:07:46.394Z,4.30
2023-02-03T02:10:14.569Z,4.50
2023-02-03T02:12:43.376Z,4.50
2023-02-03T02:15:11.529Z,4.40
2023-02-03T02:18:12.791Z,3.90
2023-02-03T02:21:12.372Z,4.40
2023-02-03T02:24:19.420Z,4.70
2023-02-03T02:27:19.163Z,4.30
2023-02-03T02:30:00.758Z,4.40
2023-02-03T02:32:34.483Z,4.30
2023-02-03T02:35:18.232Z,4.50
2023-02-03T02:38:04.833Z,4.50
2023-02-03T02:40:44.614Z,4.50
2023-02-03T02:43:18.929Z,5.30
2023-02-03T02:45:50.868Z,4.40
2023-02-03T02:48:33.481Z,4.50
2023-02-03T02:51:05.353Z,4.60
2023-02-03T02:53:55.006Z,5.00
2023-02-03T02:56:27.411Z,4.20
2023-02-03T02:58:57.959Z,4.60
2023-02-03T03:01:26.672Z,4.40
2023-02-03T03:03:54.971Z,4.40
2023-02-03T03:06:26.147Z,4.40
2023-02-03T03:09:02.533Z,4.40
2023-02-03T03:11:41.441Z,4.50
2023-02-03T03:14:13.399Z,4.30
2023-02-03T03:16:48.839Z,4.20
2023-02-03T03:19:22.446Z,4.60
2023-02-03T03:22:01.289Z,4.70
2023-02-03T03:24:37.607Z,4.60
2023-02-03T03:27:13.280Z,4.60
2023-02-03T03:29:51.275Z,4.10
2023-02-03T03:32:19.944Z,4.40
2023-02-03T03:34:48.855Z,4.30
2023-02-03T03:37:28.473Z,4.10
2023-02-03T03:39:59.868Z,4.40
2023-02-03T03:42:40.717Z,4.50
2023-02-03T03:45:25.399Z,4.10
2023-02-03T03:48:29.420Z,3.90
2023-02-03T03:51:02.612Z,4.30
2023-02-03T03:53:34.707Z,4.40
2023-02-03T03:56:06.638Z,4.40
2023-02-03T03:58:37.941Z,4.50
2023-02-03T04:01:08.379Z,4.80
2023-02-03T04:03:45.756Z,4.60
2023-02-03T04:06:14.622Z,4.70
2023-02-03T04:08:42.530Z,4.60
2023-02-03T04:11:10.489Z,4.40
2023-02-03T04:13:38.362Z,4.60
2023-02-03T04:16:06.274Z,4.30
2023-02-03T04:18:34.257Z,4.80
2023-02-03T04:21:02.199Z,4.60
2023-02-03T04:23:30.035Z,4.70
2023-02-03T04:26:01.249Z,5.00
2023-02-03T04:28:29.050Z,4.80
2023-02-03T04:31:01.168Z,5.20
2023-02-03T04:33:29.097Z,4.50
2023-02-03T04:35:57.396Z,5.00
2023-02-03T04:38:25.318Z,5.30
2023-02-03T04:40:53.186Z,4.70
2023-02-03T04:43:21.086Z,4.60
2023-02-03T04:45:49.029Z,4.70
2023-02-03T04:48:17.074Z,4.60
2023-02-03T04:50:45.019Z,4.80
2023-02-03T04:53:14.521Z,4.60
2023-02-03T04:55:50.181Z,4.60
2023-02-03T04:58:18.009Z,4.60
2023-02-03T05:00:45.873Z,4.60
2023-02-03T05:03:14.131Z,4.80
2023-02-03T05:05:42.255Z,4.70
2023-02-03T05:08:10.320Z,4.70
2023-02-03T05:10:38.211Z,4.50
2023-02-03T05:13:06.170Z,5.00
2023-02-03T05:15:33.994Z,4.60
2023-02-03T05:18:01.943Z,4.70
2023-02-03T05:20:29.846Z,4.80
2023-02-03T05:22:58.783Z,4.80
2023-02-03T05:25:27.469Z,5.00
2023-02-03T05:27:55.332Z,5.00
2023-02-03T05:30:23.362Z,4.90
2023-02-03T05:32:51.316Z,5.10
2023-02-03T05:35:19.244Z,4.90
2023-02-03T05:37:48.824Z,5.40
2023-02-03T05:40:33.278Z,5.10
2023-02-03T05:43:01.219Z,5.50
2023-02-03T05:45:29.158Z,5.00
2023-02-03T05:47:57.293Z,5.50
2023-02-03T05:50:27.181Z,5.20
2023-02-03T05:52:55.420Z,4.90
2023-02-03T05:55:23.245Z,4.20
2023-02-03T05:57:51.210Z,4.60
2023-02-03T06:00:21.336Z,4.80
2023-02-03T06:02:56.311Z,5.30
2023-02-03T06:05:26.236Z,5.00
2023-02-03T06:07:54.518Z,4.70
2023-02-03T06:10:22.957Z,5.00
2023-02-03T06:12:50.991Z,5.10
2023-02-03T06:15:19.174Z,4.80
2023-02-03T06:17:48.693Z,5.00
2023-02-03T06:20:19.268Z,4.60
2023-02-03T06:22:47.112Z,5.20
2023-02-03T06:25:14.938Z,5.20
2023-02-03T06:27:42.916Z,5.20
2023-02-03T06:30:12.050Z,5.50
2023-02-03T06:32:39.866Z,4.80
2023-02-03T06:35:08.617Z,5.30
2023-02-03T06:37:37.496Z,5.00
2023-02-03T06:40:06.210Z,5.40
2023-02-03T06:42:34.059Z,5.80
2023-02-03T06:45:01.936Z,5.40
2023-02-03T06:47:29.817Z,5.40
2023-02-03T06:49:57.681Z,5.20
2023-02-03T06:52:25.492Z,5.70
2023-02-03T06:54:53.323Z,5.30
2023-02-03T06:57:21.465Z,5.80
2023-02-03T06:59:49.483Z,5.20
2023-02-03T07:02:17.463Z,5.50
2023-02-03T07:04:45.584Z,5.10
2023-02-03T07:07:13.718Z,5.50
2023-02-03T07:09:41.954Z,5.80
2023-02-03T07:12:10.317Z,5.50
2023-02-03T07:14:39.530Z,5.90
2023-02-03T07:17:07.720Z,5.60
2023-02-03T07:19:35.526Z,5.20
2023-02-03T07:22:03.344Z,5.80
2023-02-03T07:24:31.170Z,5.30
2023-02-03T07:26:59.069Z,5.30
2023-02-03T07:29:26.957Z,5.00
2023-02-03T07:31:55.046Z,4.90
2023-02-03T07:34:23.062Z,4.70
2023-02-03T07:36:50.860Z,5.60
2023-02-03T07:39:18.687Z,5.20
2023-02-03T07:41:46.663Z,5.30
2023-02-03T07:44:14.568Z,5.30
2023-02-03T07:46:45.013Z,5.30
2023-02-03T07:49:14.018Z,5.60
2023-02-03T07:51:42.021Z,5.20
2023-02-03T07:54:09.938Z,5.50
2023-02-03T07:56:37.781Z,6.70
2023-02-03T07:59:05.859Z,5.80
2023-02-03T08:01:34.243Z,5.20
2023-02-03T08:04:05.308Z,5.20
2023-02-03T08:06:33.771Z,6.20
2023-02-03T08:09:01.654Z,5.00
2023-02-03T08:11:29.580Z,5.20
2023-02-03T08:13:57.683Z,5.30
2023-02-03T08:16:25.554Z,5.30
2023-02-03T08:18:53.545Z,5.30
2023-02-03T08:21:21.475Z,5.20
2023-02-03T08:23:49.434Z,5.30
2023-02-03T08:26:17.279Z,4.90
2023-02-03T08:28:49.811Z,4.50
2023-02-03T08:31:18.372Z,5.00
2023-02-03T08:33:46.532Z,4.70
2023-02-03T08:36:14.502Z,4.20
2023-02-03T08:38:42.764Z,4.80
2023-02-03T08:41:17.960Z,4.80
2023-02-03T08:43:45.866Z,4.90
2023-02-03T08:46:14.300Z,4.90
2023-02-03T08:48:42.430Z,4.90
2023-02-03T08:51:13.128Z,4.60
2023-02-03T08:53:41.191Z,4.90
2023-02-03T08:56:11.015Z,5.30
2023-02-03T08:58:39.491Z,4.90
2023-02-03T09:01:13.263Z,4.30
2023-02-03T09:06:12.973Z,4.30
2023-02-03T09:08:40.785Z,4.40
2023-02-03T09:11:10.364Z,4.90
2023-02-03T09:13:38.934Z,4.90
2023-02-03T09:16:07.838Z,4.30
2023-02-03T09:18:35.732Z,4.70
2023-02-03T09:21:05.661Z,4.20
2023-02-03T09:23:34.186Z,4.50
2023-02-03T09:26:07.253Z,4.20
2023-02-03T09:28:35.640Z,4.50
2023-02-03T09:31:09.990Z,4.40
2023-02-03T09:33:38.986Z,4.20
2023-02-03T09:36:08.001Z,4.30
2023-02-03T09:38:36.184Z,4.30
2023-02-03T09:41:27.101Z,4.40
2023-02-03T09:44:37.165Z,4.50
2023-02-03T09:47:18.841Z,4.50
2023-02-03T09:50:04.308Z,4.40
2023-02-03T09:52:40.468Z,4.50
2023-02-03T09:55:32.936Z,4.60
2023-02-03T09:58:00.724Z,4.40
2023-02-03T10:00:48.108Z,4.70
2023-02-03T10:03:47.834Z,4.40
2023-02-03T10:06:27.973Z,4.60
2023-02-03T10:09:27.701Z,4.50
2023-02-03T10:12:14.623Z,4.30
2023-02-03T10:14:48.597Z,4.40
2023-02-03T10:17:30.302Z,4.00
2023-02-03T10:20:23.907Z,4.30
2023-02-03T10:23:06.495Z,4.50
2023-02-03T10:25:57.854Z,4.20
2023-02-03T10:28:56.055Z,4.50
2023-02-03T10:31:28.657Z,4.50
2023-02-03T10:34:01.776Z,4.60
2023-02-03T10:36:52.387Z,4.50
2023-02-03T10:39:36.109Z,4.40
2023-02-03T10:42:05.891Z,4.40
2023-02-03T10:44:56.322Z,4.10
2023-02-03T10:47:26.240Z,4.20
2023-02-03T10:49:57.147Z,4.20
2023-02-03T10:52:34.087Z,4.50
2023-02-03T10:55:30.988Z,4.30
2023-02-03T10:58:10.625Z,4.30
2023-02-03T11:00:39.505Z,4.40
2023-02-03T11:03:16.421Z,4.60
2023-02-03T11:05:44.227Z,4.40
2023-02-03T11:08:16.495Z,4.80
2023-02-03T11:10:44.541Z,4.70
2023-02-03T11:13:19.598Z,4.30
2023-02-03T11:15:47.532Z,4.60
2023-02-03T11:18:38.104Z,4.50
2023-02-03T11:21:22.646Z,4.80
2023-02-03T11:24:06.571Z,5.20
2023-02-03T11:26:44.137Z,4.80
2023-02-03T11:29:37.249Z,5.20
2023-02-03T11:32:32.294Z,4.40
2023-02-03T11:35:23.961Z,4.00
2023-02-03T11:37:58.548Z,4.70
2023-02-03T11:42:56.796Z,8.10
2023-02-03T11:45:26.409Z,6.10
2023-02-03T11:48:12.449Z,6.10
2023-02-03T11:51:03.056Z,5.30
2023-02-03T11:54:01.724Z,5.10
2023-02-03T11:56:54.665Z,4.50
2023-02-03T11:59:30.684Z,5.10
2023-02-03T12:02:20.723Z,5.20
2023-02-03T12:05:04.473Z,5.20
2023-02-03T12:08:06.400Z,5.30
2023-02-03T12:11:06.179Z,6.30
2023-02-03T12:13:49.912Z,5.40
2023-02-03T12:16:55.757Z,5.20
2023-02-03T12:19:39.273Z,5.50
2023-02-03T12:22:29.637Z,5.00
2023-02-03T12:25:16.091Z,5.00
2023-02-03T12:27:56.557Z,4.50
2023-02-03T12:30:47.738Z,4.50
2023-02-03T12:33:24.839Z,4.90
2023-02-03T12:36:03.514Z,5.40
2023-02-03T12:38:47.335Z,5.10
2023-02-03T12:41:28.398Z,5.00
2023-02-03T12:44:05.142Z,5.20
2023-02-03T12:46:40.699Z,5.50
2023-02-03T12:49:32.140Z,5.20
2023-02-03T12:52:23.255Z,4.80
2023-02-03T12:55:03.406Z,4.90
2023-02-03T12:57:57.646Z,5.00
2023-02-03T13:00:41.478Z,4.60
2023-02-03T13:03:19.241Z,5.40
2023-02-03T13:05:54.477Z,4.60
2023-02-03T13:08:32.400Z,4.70
2023-02-03T13:11:23.309Z,4.70
2023-02-03T13:14:00.703Z,4.50
2023-02-03T13:16:36.054Z,5.50
2023-02-03T13:19:11.300Z,5.70
2023-02-03T13:21:39.208Z,4.90
2023-02-03T13:24:08.116Z,5.10
2023-02-03T13:26:42.730Z,5.60
2023-02-03T13:29:28.040Z,5.10
2023-02-03T13:32:26.612Z,4.80
2023-02-03T13:35:21.557Z,5.40
2023-02-03T13:38:14.799Z,6.90
2023-02-03T13:41:14.133Z,5.60
2023-02-03T13:43:49.147Z,5.00
2023-02-03T13:46:27.438Z,5.50
2023-02-03T13:48:59.915Z,5.20
2023-02-03T13:51:34.559Z,5.40
2023-02-03T13:54:12.368Z,5.20
2023-02-03T13:56:40.329Z,4.70
2023-02-03T13:59:13.930Z,4.80
2023-02-03T14:01:42.945Z,5.20
2023-02-03T14:04:26.805Z,5.20
2023-02-03T14:07:01.247Z,5.80
2023-02-03T14:09:34.174Z,5.40
2023-02-03T14:12:17.914Z,5.00
2023-02-03T14:14:51.775Z,5.00
2023-02-03T14:20:27.393Z,5.50
2023-02-03T14:23:07.143Z,5.20
2023-02-03T14:25:45.644Z,4.90
2023-02-03T14:28:18.211Z,6.30
2023-02-03T14:31:12.595Z,5.40
2023-02-03T14:36:36.826Z,5.50
2023-02-03T14:39:22.246Z,6.40
2023-02-03T14:42:16.007Z,6.10
2023-02-03T14:45:05.868Z,5.40
2023-02-03T14:47:39.474Z,5.90
2023-02-03T14:50:26.380Z,5.30
2023-02-03T14:53:12.993Z,5.10
2023-02-03T14:55:56.917Z,5.10
2023-02-03T14:58:46.034Z,5.10
2023-02-03T15:01:36.105Z,4.80
2023-02-03T15:04:21.721Z,5.80
2023-02-03T15:06:53.040Z,6.00
2023-02-03T15:09:36.887Z,5.50
2023-02-03T15:12:24.757Z,5.50
2023-02-03T15:14:53.821Z,5.30
2023-02-03T15:17:27.567Z,5.50
2023-02-03T15:19:55.548Z,5.00
2023-02-03T15:22:28.975Z,4.90
2023-02-03T15:25:00.487Z,5.60
2023-02-03T15:27:33.297Z,5.20
2023-02-03T15:30:34.622Z,5.10
2023-02-03T15:33:08.164Z,5.30
2023-02-03T15:35:39.023Z,5.30
2023-02-03T15:38:13.515Z,4.80
2023-02-03T15:40:47.799Z,4.80
2023-02-03T15:43:15.569Z,4.80
2023-02-03T15:45:55.485Z,5.00
2023-02-03T15:48:29.569Z,4.80
2023-02-03T15:51:06.073Z,4.60
2023-02-03T15:53:47.734Z,5.00
2023-02-03T15:56:37.879Z,5.80
2023-02-03T15:59:19.279Z,5.20
2023-02-03T16:01:47.789Z,5.00
2023-02-03T16:04:16.318Z,5.30
2023-02-03T16:06:50.326Z,4.80
2023-02-03T16:09:38.960Z,5.30
2023-02-03T16:12:26.102Z,6.70
2023-02-03T16:14:55.683Z,6.70
2023-02-03T16:17:27.577Z,7.10
2023-02-03T16:20:11.337Z,5.20
2023-02-03T16:22:44.879Z,5.10
2023-02-03T16:25:15.714Z,6.00
2023-02-03T16:27:45.801Z,6.80
2023-02-03T16:30:29.533Z,7.10
2023-02-03T16:33:33.695Z,6.50
2023-02-03T16:36:30.213Z,5.40
2023-02-03T16:39:18.062Z,5.60
2023-02-03T16:42:02.079Z,5.40
2023-02-03T16:44:46.145Z,6.30
2023-02-03T16:47:42.675Z,5.50
2023-02-03T16:50:38.261Z,5.70
2023-02-03T16:53:13.142Z,5.40
2023-02-03T16:55:42.217Z,4.80
2023-02-03T16:58:12.453Z,5.30
2023-02-03T17:00:42.564Z,6.80
2023-02-03T17:03:12.915Z,6.10
2023-02-03T17:05:42.776Z,5.60
2023-02-03T17:08:11.526Z,6.00
2023-02-03T17:10:42.339Z,5.60
2023-02-03T17:13:11.094Z,5.30
2023-02-03T17:15:52.394Z,5.30
2023-02-03T17:18:21.032Z,5.20
2023-02-03T17:20:48.960Z,4.70
2023-02-03T17:23:17.327Z,5.00
2023-02-03T17:25:47.621Z,4.50
2023-02-03T17:28:16.099Z,4.50
2023-02-03T17:30:44.496Z,4.50
2023-02-03T17:33:12.545Z,5.20
2023-02-03T17:35:45.543Z,5.30
2023-02-03T17:38:17.138Z,4.70
2023-02-03T17:53:27.365Z,4.80
2023-02-03T17:55:55.242Z,4.60
2023-02-03T17:58:23.214Z,4.80
2023-02-03T18:00:51.084Z,5.10
2023-02-03T18:03:19.016Z,5.20
2023-02-03T18:05:51.562Z,5.30
2023-02-03T18:08:20.506Z,5.30
2023-02-03T18:10:52.342Z,6.10
2023-02-03T18:13:23.311Z,5.80
2023-02-03T18:15:51.393Z,4.50
2023-02-03T18:18:21.302Z,4.80
2023-02-03T18:20:49.318Z,4.50
2023-02-03T18:23:17.358Z,4.50
2023-02-03T18:25:46.090Z,4.60
2023-02-03T18:28:13.924Z,5.00
2023-02-03T18:30:41.963Z,4.70
2023-02-03T18:33:10.190Z,5.00
2023-02-03T18:35:38.130Z,4.60
2023-02-03T18:38:11.234Z,4.60
2023-02-03T18:40:39.251Z,4.30
2023-02-03T18:43:07.260Z,4.10
2023-02-03T18:45:38.744Z,4.80
2023-02-03T18:48:06.556Z,4.70
2023-02-03T18:50:34.483Z,4.40
2023-02-03T18:53:02.619Z,4.50
2023-02-03T18:55:30.468Z,4.40
2023-02-03T18:57:58.356Z,4.80
2023-02-03T19:00:27.038Z,4.80
2023-02-03T19:02:55.369Z,4.30
2023-02-03T19:05:23.520Z,4.60
2023-02-03T19:07:51.385Z,4.70
2023-02-03T19:10:19.310Z,4.60
2023-02-03T19:12:47.191Z,4.20
2023-02-03T19:15:15.258Z,4.90
2023-02-03T19:17:43.153Z,4.90
2023-02-03T19:20:11.558Z,4.80
2023-02-03T19:22:39.400Z,4.80
2023-02-03T19:25:07.884Z,5.20
2023-02-03T19:27:35.691Z,5.60
2023-02-03T19:30:04.454Z,4.80
2023-02-03T19:32:32.300Z,5.10
2023-02-03T19:35:00.368Z,5.20
2023-02-03T19:37:28.658Z,4.70
2023-02-03T19:39:56.623Z,4.60
2023-02-03T19:42:24.489Z,4.60
2023-02-03T19:44:52.461Z,4.70
2023-02-03T19:47:20.392Z,6.10
2023-02-03T19:49:48.234Z,4.90
2023-02-03T19:52:16.062Z,5.00
2023-02-03T19:54:43.927Z,4.90
2023-02-03T19:57:11.792Z,4.70
2023-02-03T19:59:39.679Z,5.10
2023-02-03T20:02:14.030Z,4.90
2023-02-03T20:04:44.303Z,4.60
2023-02-03T20:07:14.090Z,4.80
2023-02-03T20:09:42.024Z,4.90
2023-02-03T20:12:09.953Z,5.20
2023-02-03T20:14:37.898Z,4.80
2023-02-03T20:17:07.441Z,5.10
2023-02-03T20:19:35.256Z,4.70
2023-02-03T20:22:03.278Z,5.10
2023-02-03T20:24:31.139Z,5.10
2023-02-03T20:26:59.162Z,4.90
2023-02-03T20:29:27.000Z,4.50
2023-02-03T20:31:55.545Z,4.50
2023-02-03T20:34:23.741Z,4.70
2023-02-03T20:36:51.602Z,4.40
2023-02-03T20:39:20.628Z,4.80
2023-02-03T20:41:49.832Z,4.70
2023-02-03T20:44:18.100Z,4.90
2023-02-03T20:46:46.167Z,4.70
2023-02-03T20:49:16.895Z,4.90
2023-02-03T20:51:45.067Z,4.50
2023-02-03T20:54:18.291Z,4.70
2023-02-03T20:56:46.161Z,4.80
2023-02-03T20:59:17.823Z,4.80
2023-02-03T21:01:50.562Z,4.70
2023-02-03T21:04:34.609Z,4.90
2023-02-03T21:07:20.391Z,4.50
2023-02-03T21:09:48.415Z,4.70
2023-02-03T21:12:16.327Z,4.70
2023-02-03T21:14:48.844Z,4.90
2023-02-03T21:17:23.533Z,4.60
2023-02-03T21:19:52.915Z,4.50
2023-02-03T21:22:30.152Z,4.90
2023-02-03T21:25:00.208Z,4.80
2023-02-03T21:27:30.800Z,4.70
2023-02-03T21:30:00.787Z,4.80
2023-02-03T21:32:38.878Z,4.80
2023-02-03T21:35:37.602Z,4.80
2023-02-03T21:38:37.363Z,5.10
2023-02-03T21:41:16.522Z,4.70
2023-02-03T21:43:47.837Z,4.60
2023-02-03T21:46:32.940Z,5.30
2023-02-03T21:49:03.032Z,5.10
2023-02-03T21:51:35.096Z,4.80
2023-02-03T21:54:20.562Z,4.60
2023-02-03T21:56:50.481Z,4.40
2023-02-03T21:59:21.309Z,4.30
2023-02-03T22:01:50.136Z,4.90
2023-02-03T22:04:17.951Z,4.60
2023-02-03T22:06:49.131Z,4.40
2023-02-03T22:09:19.887Z,4.50
2023-02-03T22:11:48.210Z,4.40
2023-02-03T22:14:17.735Z,4.30
2023-02-03T22:16:45.659Z,4.70
2023-02-03T22:19:13.750Z,4.60
2023-02-03T22:21:41.851Z,4.70
2023-02-03T22:24:09.688Z,4.70
2023-02-03T22:26:37.643Z,4.50
2023-02-03T22:29:05.692Z,4.40
2023-02-03T22:31:33.867Z,4.40
2023-02-03T22:34:01.906Z,4.60
2023-02-03T22:36:29.940Z,4.50
2023-02-03T22:38:57.887Z,5.20
2023-02-03T22:41:25.680Z,4.60
2023-02-03T22:43:53.661Z,4.20
2023-02-03T22:46:21.657Z,4.20
2023-02-03T22:48:49.614Z,4.60
2023-02-03T22:51:17.474Z,3.90
2023-02-03T22:53:45.577Z,4.30
2023-02-03T22:56:13.412Z,4.10
2023-02-03T22:58:41.851Z,4.10
2023-02-03T23:01:09.674Z,4.60
2023-02-03T23:03:37.676Z,4.60
2023-02-03T23:06:06.136Z,4.50
2023-02-03T23:08:34.017Z,4.80
2023-02-03T23:11:01.842Z,4.60
2023-02-03T23:13:29.711Z,4.50
2023-02-03T23:15:57.659Z,4.40
2023-02-03T23:18:25.702Z,4.50
2023-02-03T23:20:53.596Z,4.80
2023-02-03T23:23:21.495Z,4.40
2023-02-03T23:25:49.367Z,4.30
2023-02-03T23:28:17.386Z,4.40
2023-02-03T23:30:45.454Z,4.70
2023-02-03T23:33:13.541Z,4.60
2023-02-03T23:35:47.493Z,4.30
2023-02-03T23:38:17.094Z,4.60
2023-02-03T23:40:45.405Z,4.30
2023-02-03T23:43:14.346Z,4.60
2023-02-03T23:45:42.394Z,4.70
2023-02-03T23:48:10.529Z,4.70
2023-02-03T23:50:38.406Z,4.70
2023-02-03T23:53:06.302Z,4.40
2023-02-03T23:55:36.188Z,4.00
2023-02-03T23:58:05.086Z,4.70
